createdAt,value
2019-01-02T00:01:48.928Z,18.25
2019-01-02T00:04:39.713Z,19.10
2019-01-02T00:07:10.433Z,20.17
2019-01-02T00:09:59.460Z,21.80
2019-01-02T00:12:29.784Z,16.48
2019-01-02T00:15:00.213Z,19.25
2019-01-02T00:17:30.579Z,16.60
2019-01-02T00:20:02.574Z,17.10
2019-01-02T00:22:32.843Z,14.58
2019-01-02T00:25:23.687Z,13.70
2019-01-02T00:27:55.752Z,20.32
2019-01-02T00:30:26.108Z,14.55
2019-01-02T00:33:09.002Z,16.70
2019-01-02T00:35:39.417Z,15.25
2019-01-02T00:38:09.752Z,15.55
2019-01-02T00:40:40.022Z,14.73
2019-01-02T00:43:10.547Z,17.57
2019-01-02T00:45:40.800Z,15.38
2019-01-02T00:48:11.075Z,12.82
2019-01-02T00:50:43.157Z,14.80
2019-01-02T00:53:32.552Z,13.45
2019-01-02T00:56:02.936Z,15.70
2019-01-02T01:01:52.081Z,17.80
2019-01-02T01:04:23.715Z,18.20
2019-01-02T01:06:53.955Z,15.13
2019-01-02T01:09:26.050Z,16.15
2019-01-02T01:15:06.723Z,15.53
2019-01-02T01:17:38.730Z,17.98
2019-01-02T01:20:10.345Z,17.90
2019-01-02T01:31:53.150Z,19.77
2019-01-02T01:34:34.942Z,17.57
2019-01-02T01:37:18.651Z,18.17
2019-01-02T01:42:45.450Z,14.45
2019-01-02T01:48:13.637Z,15.85
2019-01-02T01:56:35.797Z,19.40
2019-01-02T01:59:44.912Z,15.75
2019-01-02T02:02:27.972Z,20.52
2019-01-02T02:04:58.586Z,18.70
2019-01-02T02:07:49.123Z,18.60
2019-01-02T02:10:20.015Z,19.12
2019-01-02T02:13:10.634Z,18.57
2019-01-02T02:15:41.051Z,18.10
2019-01-02T02:18:11.224Z,14.53
2019-01-02T02:20:43.819Z,13.55
2019-01-02T02:23:14.085Z,16.50
2019-01-02T02:25:46.141Z,16.97
2019-01-02T02:28:37.751Z,14.23
2019-01-02T02:31:28.161Z,15.50
2019-01-02T02:36:57.416Z,15.68
2019-01-02T02:39:29.485Z,15.72
2019-01-02T02:42:01.532Z,16.57
2019-01-02T02:53:12.911Z,18.23
2019-01-02T02:55:45.411Z,18.57
2019-01-02T02:58:17.544Z,13.32
2019-01-02T03:00:49.684Z,16.30
2019-01-02T03:03:20.212Z,17.87
2019-01-02T03:05:50.456Z,14.70
2019-01-02T03:08:39.713Z,14.33
2019-01-02T03:11:10.078Z,16.17
2019-01-02T03:14:00.944Z,14.00
2019-01-02T03:16:33.000Z,15.03
2019-01-02T03:21:58.990Z,19.20
2019-01-02T03:24:31.058Z,15.65
2019-01-02T03:27:01.526Z,14.78
2019-01-02T03:29:31.835Z,15.80
2019-01-02T03:32:02.453Z,12.45
2019-01-02T03:34:53.215Z,14.90
2019-01-02T03:37:23.572Z,18.67
2019-01-02T03:39:53.814Z,17.55
2019-01-02T03:42:42.849Z,11.93
2019-01-02T03:45:15.752Z,15.88
2019-01-02T03:47:46.396Z,15.93
2019-01-02T03:50:18.682Z,16.45
2019-01-02T03:52:48.961Z,16.62
2019-01-02T03:55:19.654Z,14.43
2019-01-02T03:58:08.724Z,15.88
2019-01-02T04:00:39.010Z,18.70
2019-01-02T04:03:20.738Z,19.57
2019-01-02T04:05:51.138Z,21.40
2019-01-02T04:08:21.410Z,19.92
2019-01-02T04:10:51.740Z,17.15
2019-01-02T04:13:23.202Z,17.00
2019-01-02T04:16:12.899Z,18.25
2019-01-02T04:27:22.274Z,15.55
2019-01-02T04:29:52.518Z,15.80
2019-01-02T04:32:22.867Z,14.00
2019-01-02T04:34:53.161Z,18.20
2019-01-02T04:37:42.213Z,16.37
2019-01-02T04:40:13.816Z,17.10
2019-01-02T04:42:44.135Z,18.25
2019-01-02T04:45:14.434Z,17.82
2019-01-02T04:48:03.764Z,16.17
2019-01-02T04:50:34.098Z,16.35
2019-01-02T04:53:04.370Z,17.40
2019-01-02T04:55:34.684Z,15.30
2019-01-02T05:00:59.343Z,17.77
2019-01-02T05:06:15.816Z,22.77
2019-01-02T05:08:46.173Z,19.73
2019-01-02T05:11:16.430Z,14.13
2019-01-02T05:13:46.836Z,17.42
2019-01-02T05:16:17.161Z,18.27
2019-01-02T05:18:47.424Z,18.37
2019-01-02T05:21:17.782Z,17.15
2019-01-02T05:32:15.996Z,18.35
2019-01-02T05:37:36.023Z,17.30
2019-01-02T05:40:08.453Z,21.37
2019-01-02T05:42:38.733Z,21.20
2019-01-02T05:45:09.344Z,17.73
2019-01-02T05:47:58.594Z,20.20
2019-01-02T05:53:49.144Z,21.60
2019-01-02T05:56:19.518Z,21.50
2019-01-02T05:59:28.740Z,20.25
2019-01-02T06:05:01.363Z,23.27
2019-01-02T06:07:31.608Z,24.07
2019-01-02T06:10:20.836Z,26.07
2019-01-02T06:12:51.140Z,30.15
2019-01-02T06:16:00.406Z,25.25
2019-01-02T06:18:30.744Z,30.57
2019-01-02T06:21:01.028Z,27.35
2019-01-02T06:23:31.404Z,29.12
2019-01-02T06:26:01.649Z,26.90
2019-01-02T06:28:31.964Z,28.05
2019-01-02T06:31:02.337Z,39.13
2019-01-02T06:33:32.723Z,32.40
2019-01-02T06:38:59.454Z,30.15
2019-01-02T06:41:29.804Z,22.77
2019-01-02T06:44:18.953Z,25.72
2019-01-02T06:46:49.263Z,24.75
2019-01-02T06:49:19.585Z,26.55
2019-01-02T06:51:50.043Z,21.62
2019-01-02T06:54:20.808Z,24.47
2019-01-02T06:56:51.161Z,23.05
2019-01-02T06:59:22.015Z,23.35
2019-01-02T07:02:11.357Z,20.05
2019-01-02T07:04:51.912Z,16.95
2019-01-02T07:07:40.938Z,15.95
2019-01-02T07:10:11.415Z,17.85
2019-01-02T07:12:41.692Z,18.30
2019-01-02T07:15:50.845Z,28.05
2019-01-02T07:18:21.159Z,20.60
2019-01-02T07:20:51.846Z,19.10
2019-01-02T07:23:21.911Z,24.02
2019-01-02T07:25:51.932Z,20.48
2019-01-02T07:28:21.949Z,16.97
2019-01-02T07:36:42.114Z,24.15
2019-01-02T07:39:23.877Z,20.90
2019-01-02T07:42:05.486Z,16.55
2019-01-02T07:44:47.487Z,23.60
2019-01-02T07:47:55.450Z,21.33
2019-01-02T07:51:03.186Z,25.45
2019-01-02T07:54:10.962Z,27.05
2019-01-02T07:57:18.713Z,29.50
2019-01-02T08:00:00.164Z,30.92
2019-01-02T08:05:26.246Z,29.12
2019-01-02T08:11:06.316Z,33.23
2019-01-02T08:14:14.086Z,31.50
2019-01-02T08:17:22.076Z,34.78
2019-01-02T08:20:29.777Z,29.18
2019-01-02T08:23:37.616Z,27.10
2019-01-02T08:26:33.299Z,27.65
2019-01-02T08:29:18.013Z,26.27
2019-01-02T08:31:59.669Z,29.72
2019-01-02T08:34:53.668Z,30.17
2019-01-02T08:38:01.376Z,26.48
2019-01-02T08:40:42.452Z,33.20
2019-01-02T08:43:24.213Z,32.50
2019-01-02T08:46:32.133Z,34.03
2019-01-02T08:49:27.643Z,33.55
2019-01-02T08:52:09.390Z,33.55
2019-01-02T08:55:17.344Z,30.77
2019-01-02T08:58:25.622Z,38.30
2019-01-02T09:01:18.548Z,36.63
2019-01-02T09:04:11.162Z,35.48
2019-01-02T09:06:52.220Z,36.48
2019-01-02T09:09:33.845Z,34.33
2019-01-02T09:12:15.289Z,39.00
2019-01-02T09:15:23.378Z,37.75
2019-01-02T09:18:31.138Z,34.48
2019-01-02T09:21:38.941Z,34.13
2019-01-02T09:24:46.864Z,35.17
2019-01-02T09:28:00.123Z,35.40
2019-01-02T09:31:07.836Z,48.68
2019-01-02T09:34:15.643Z,42.08
2019-01-02T09:37:23.337Z,31.42
2019-01-02T09:40:05.281Z,35.00
2019-01-02T09:48:49.518Z,32.75
2019-01-02T09:51:57.441Z,29.10
2019-01-02T09:57:28.236Z,25.72
2019-01-02T10:00:36.982Z,28.97
2019-01-02T10:03:18.774Z,29.20
2019-01-02T10:05:59.808Z,24.67
2019-01-02T10:09:07.676Z,30.70
2019-01-02T10:18:35.768Z,17.32
2019-01-02T10:24:50.185Z,20.15
2019-01-02T10:27:57.981Z,23.17
2019-01-02T10:31:05.740Z,16.10
2019-01-02T10:34:01.612Z,19.25
2019-01-02T10:37:09.451Z,20.70
2019-01-02T10:40:17.130Z,17.07
2019-01-02T10:43:24.963Z,21.40
2019-01-02T10:46:32.848Z,21.40
2019-01-02T10:49:28.292Z,23.00
2019-01-02T10:52:10.475Z,17.00
2019-01-02T10:55:18.500Z,16.30
2019-01-02T10:58:26.198Z,20.13
2019-01-02T11:01:37.117Z,19.77
2019-01-02T11:04:30.646Z,22.00
2019-01-02T11:07:39.381Z,30.63
2019-01-02T11:10:47.070Z,28.90
2019-01-02T11:16:45.956Z,19.53
2019-01-02T11:19:42.959Z,23.00
2019-01-02T11:25:28.018Z,24.70
2019-01-02T11:28:35.820Z,19.33
2019-01-02T11:34:46.713Z,14.90
2019-01-02T11:40:39.349Z,13.20
2019-01-02T11:43:47.028Z,15.40
2019-01-02T11:49:11.958Z,12.10
2019-01-02T11:51:42.064Z,14.50
2019-01-02T11:54:12.278Z,14.03
2019-01-02T11:56:42.529Z,11.77
2019-01-02T11:59:12.801Z,14.40
2019-01-02T12:01:42.912Z,14.33
2019-01-02T12:04:12.907Z,12.53
2019-01-02T12:06:43.165Z,12.40
2019-01-02T12:09:25.039Z,13.63
2019-01-02T12:11:55.080Z,14.57
2019-01-02T12:14:43.952Z,16.43
2019-01-02T12:19:50.477Z,10.60
2019-01-02T12:22:21.049Z,13.13
2019-01-02T12:30:46.113Z,13.40
2019-01-02T12:33:16.177Z,14.27
2019-01-02T12:35:46.262Z,12.93
2019-01-02T12:38:17.592Z,16.13
2019-01-02T12:43:44.322Z,18.20
2019-01-02T12:46:14.627Z,15.30
2019-01-02T12:48:47.433Z,16.80
2019-01-02T12:51:17.823Z,19.60
2019-01-02T12:53:48.187Z,16.67
2019-01-02T12:56:18.278Z,18.37
2019-01-02T12:58:48.646Z,18.10
2019-01-02T13:01:40.708Z,21.83
2019-01-02T13:08:15.471Z,20.50
2019-01-02T13:10:56.910Z,22.73
2019-01-02T13:14:04.797Z,25.40
2019-01-02T13:17:12.483Z,23.83
2019-01-02T13:20:20.249Z,16.50
2019-01-02T13:23:27.946Z,15.43
2019-01-02T13:26:09.534Z,16.60
2019-01-02T13:29:17.385Z,10.70
2019-01-02T13:32:25.145Z,9.77
2019-01-02T13:35:32.788Z,9.07
2019-01-02T13:38:40.651Z,9.70
2019-01-02T13:45:05.662Z,14.63
2019-01-02T13:48:13.284Z,11.03
2019-01-02T13:51:00.268Z,13.53
2019-01-02T13:56:19.036Z,14.00
2019-01-02T13:58:49.219Z,12.50
2019-01-02T14:01:19.777Z,12.53
2019-01-02T14:03:54.175Z,14.03
2019-01-02T14:06:24.451Z,14.73
2019-01-02T14:08:54.377Z,16.53
2019-01-02T14:14:16.497Z,31.87
2019-01-02T14:16:46.590Z,20.57
2019-01-02T14:19:16.809Z,21.43
2019-01-02T14:21:46.924Z,20.93
2019-01-02T14:24:35.764Z,18.63
2019-01-02T14:27:17.362Z,23.97
2019-01-02T14:32:30.674Z,17.43
2019-01-02T14:35:00.754Z,18.30
2019-01-02T14:37:31.070Z,22.13
2019-01-02T14:40:20.560Z,22.63
2019-01-02T14:45:46.271Z,28.80
2019-01-02T14:51:11.300Z,22.63
2019-01-02T14:53:41.553Z,24.00
2019-01-02T14:56:11.897Z,39.73
2019-01-02T14:58:42.267Z,34.25
2019-01-02T15:04:01.619Z,37.80
2019-01-02T15:06:31.947Z,40.85
2019-01-02T15:09:01.908Z,50.65
2019-01-02T15:11:43.999Z,50.17
2019-01-02T15:14:25.517Z,59.63
2019-01-02T15:16:55.902Z,62.13
2019-01-02T15:19:26.201Z,54.65
2019-01-02T15:21:57.060Z,43.33
2019-01-02T15:27:02.935Z,43.60
2019-01-02T15:29:32.957Z,36.10
2019-01-02T15:32:02.992Z,31.90
2019-01-02T15:34:33.032Z,27.17
2019-01-02T15:37:03.292Z,25.73
2019-01-02T15:39:52.299Z,36.10
2019-01-02T15:42:22.640Z,21.25
2019-01-02T15:44:52.933Z,23.70
2019-01-02T15:47:22.962Z,22.65
2019-01-02T15:49:53.373Z,20.35
2019-01-02T15:52:23.426Z,23.22
2019-01-02T15:55:12.366Z,22.62
2019-01-02T15:58:01.291Z,24.45
2019-01-02T16:00:31.446Z,21.82
2019-01-02T16:03:20.473Z,22.15
2019-01-02T16:08:26.152Z,25.37
2019-01-02T16:14:28.401Z,29.27
2019-01-02T16:17:37.483Z,25.30
2019-01-02T16:25:48.178Z,25.05
2019-01-02T16:28:37.328Z,20.62
2019-01-02T16:31:07.657Z,21.97
2019-01-02T16:33:56.914Z,17.27
2019-01-02T16:36:27.272Z,17.00
2019-01-02T16:38:57.405Z,17.98
2019-01-02T16:41:27.522Z,19.52
2019-01-02T16:44:16.648Z,17.12
2019-01-02T16:50:14.599Z,24.82
2019-01-02T16:52:44.850Z,23.38
2019-01-02T16:55:54.165Z,21.95
2019-01-02T16:58:24.579Z,20.97
2019-01-02T17:00:54.923Z,16.23
2019-01-02T17:04:02.924Z,15.45
2019-01-02T17:12:37.706Z,17.17
2019-01-02T17:15:47.703Z,18.60
2019-01-02T17:18:18.014Z,24.37
2019-01-02T17:20:49.642Z,24.77
2019-01-02T17:23:39.810Z,14.85
2019-01-02T17:26:30.328Z,11.50
2019-01-02T17:29:11.265Z,17.20
2019-01-02T17:37:21.546Z,11.28
2019-01-02T17:39:51.704Z,12.50
2019-01-02T17:42:21.738Z,14.93
2019-01-02T17:45:31.136Z,9.20
2019-01-02T17:51:27.353Z,11.12
2019-01-02T17:57:21.953Z,11.03
2019-01-02T18:02:58.457Z,13.08
2019-01-02T18:08:51.403Z,14.68
2019-01-02T18:14:34.368Z,15.28
2019-01-02T18:17:05.912Z,16.87
2019-01-02T18:19:56.892Z,13.43
2019-01-02T18:22:50.958Z,13.72
2019-01-02T18:25:44.031Z,16.23
2019-01-02T18:34:26.711Z,14.00
2019-01-02T18:37:15.870Z,16.17
2019-01-02T18:40:05.448Z,15.08
2019-01-02T18:45:51.546Z,12.93
2019-01-02T18:48:21.940Z,15.05
2019-01-02T19:11:11.878Z,15.00
2019-01-02T19:13:42.381Z,16.57
2019-01-02T19:16:12.746Z,13.48
2019-01-02T19:31:36.054Z,16.27
2019-01-02T19:37:32.530Z,18.00
2019-01-02T19:49:08.013Z,17.20
2019-01-02T19:55:03.300Z,17.70
2019-01-02T20:00:44.402Z,18.35
2019-01-02T20:12:15.092Z,17.77
2019-01-02T20:17:29.555Z,18.73
2019-01-02T20:22:59.281Z,15.68
2019-01-02T20:33:39.897Z,14.33
2019-01-02T20:39:09.948Z,16.23
2019-01-02T20:41:40.140Z,15.58
2019-01-02T20:44:10.355Z,12.55
2019-01-02T20:46:40.506Z,12.58
2019-01-02T20:49:10.934Z,12.82
2019-01-02T20:51:41.189Z,13.28
2019-01-02T20:54:12.035Z,11.53
2019-01-02T20:57:02.431Z,13.03
2019-01-02T20:59:32.651Z,12.37
2019-01-02T21:04:53.625Z,14.43
2019-01-02T21:10:18.657Z,9.80
2019-01-02T21:12:48.691Z,13.88
2019-01-02T21:18:08.678Z,10.95
2019-01-02T21:23:51.668Z,10.05
2019-01-02T21:26:21.755Z,13.98
2019-01-02T21:31:40.935Z,9.05
2019-01-02T21:34:11.147Z,11.65
2019-01-02T21:39:30.693Z,11.53
2019-01-02T21:42:00.853Z,12.05
2019-01-02T21:44:30.771Z,13.68
2019-01-02T21:47:00.988Z,11.68
2019-01-02T21:49:51.376Z,11.33
2019-01-02T21:52:40.386Z,9.50
2019-01-02T21:55:31.273Z,14.47
2019-01-02T21:58:40.670Z,8.50
2019-01-02T22:01:29.736Z,10.75
2019-01-02T22:04:00.188Z,10.98
2019-01-02T22:09:44.636Z,11.25
2019-01-02T22:12:33.787Z,12.20
2019-01-02T22:17:40.547Z,13.75
2019-01-02T22:23:06.909Z,12.35
2019-01-02T22:25:55.885Z,12.70
2019-01-02T22:31:48.393Z,11.38
2019-01-02T22:34:18.750Z,11.05
2019-01-02T22:36:49.120Z,9.35
2019-01-02T22:39:19.618Z,22.73
2019-01-02T22:41:49.894Z,13.95
2019-01-02T22:44:38.902Z,10.25
2019-01-02T22:50:11.891Z,10.65
2019-01-02T22:52:42.184Z,11.30
2019-01-02T22:55:12.492Z,9.23
2019-01-02T22:57:42.827Z,9.25
2019-01-02T23:03:21.532Z,9.83
2019-01-02T23:06:10.550Z,9.63
2019-01-02T23:11:37.539Z,9.45
2019-01-02T23:14:26.579Z,12.90
2019-01-02T23:17:27.063Z,9.70
2019-01-02T23:20:16.143Z,8.70
2019-01-02T23:26:19.843Z,8.40
2019-01-02T23:29:13.472Z,11.10
2019-01-02T23:32:02.477Z,9.60
2019-01-02T23:35:10.850Z,11.55
2019-01-02T23:41:07.801Z,11.53
2019-01-02T23:43:57.089Z,9.75
2019-01-02T23:46:46.111Z,10.65
2019-01-02T23:49:27.279Z,7.33
2019-01-02T23:52:16.351Z,10.20
2019-01-02T23:55:25.281Z,9.80
2019-01-02T23:58:14.333Z,9.75
